KFLG

Flagstaff Pulliam Airport

Airport
ICAO code
KFLG
IATA Code
FLG
Summary
ICAO Region
NAM
ICAO Territory
Location

Flagstaff, Arizona

Serving
Flagstaff
Elevation
7014 ft
Coordinates
35° 8' 16" N , 111° 40' 18" W
KCC
Airport RE
Hot and High Operations
Metar
KFLG 142357Z 20023G47KT 10SM CLR 12/M13 A3000 RMK AO2 PK WND 19047/2349 SLP113 T01221133 10144 20122 56019

Regional airport serving Flagstaff, Arizona, USA and the surrounding area.

Airport map

Aerial View

SKYbrary Partners:

Safety knowledge contributed by: